Prince Madog — ZNLJ5 — position and weather

sailwx.info

Track history (hours):
 
Tides and Currents Weather Stations Pressure Air Temp Water Temp Dewpoint Dewpoint Depression Visibility Wind Speed Wind Dir Waves Ship Positions

Oceanographic research ship Prince Madog (UK)

Detailed information on ship capabilities available from University of Delaware's Ocean Information Center.

Last reported at 2019-Oct-16 15:19 UTC. Time now 2019-Oct-17 16:11 UTC.
Position N 53°14' W 004°09'.

Length 35 m; draft 3.9 m.

Type: Ship. MMSI: 235234000.

Date/timePositionNaut miles runAvg speedWind from/ knotsBaromVisibWave heightAir tempDewpointWater temp
2019-Oct-16 15:19N 53°14' W 004°09'3 7.7
2019-Oct-16 14:59N 53°16' W 004°06'3 7.0
2019-Oct-16 14:30N 53°18' W 004°02'4 6.7
2019-Oct-16 13:57N 53°22' W 004°04'2 4.7
2019-Oct-16 13:30N 53°23' W 004°01'3 5.1
2019-Oct-16 12:58N 53°25' W 003°57'2 5.3
2019-Oct-16 12:30N 53°27' W 003°54'2 4.7
2019-Oct-16 12:00N 53°28' W 003°51'1 1.8
2019-Oct-16 11:30N 53°28' W 003°50'1 2.7
2019-Oct-16 11:00N 53°28' W 003°48'1 2.5
2019-Oct-16 10:30N 53°28' W 003°46'3 5.8
2019-Oct-16 10:00N 53°26' W 003°49'4 8.7
2019-Oct-16 09:30N 53°23' W 003°54'5 9.7
2019-Oct-16 09:00N 53°20' W 004°00'4 8.3
2019-Oct-16 08:30N 53°17' W 004°04'4 0.2
2019-Oct-15 14:51N 53°14' W 004°09'3 7.8
2019-Oct-15 14:30N 53°16' W 004°05'3 6.4
2019-Oct-15 14:01N 53°18' W 004°02'3 5.3
2019-Oct-15 13:30N 53°21' W 004°01'2 4.8
2019-Oct-15 13:00N 53°23' W 003°59'3 5.5
2019-Oct-15 12:30N 53°25' W 003°55'3 5.1
2019-Oct-15 12:00N 53°26' W 003°53'2 4.5
2019-Oct-15 11:30N 53°28' W 003°51'1 2.2
2019-Oct-15 11:00N 53°28' W 003°49'1 2.8
2019-Oct-15 10:30N 53°28' W 003°46'2 3.6
2019-Oct-15 10:00N 53°27' W 003°47'510.9
2019-Oct-15 09:30N 53°22' W 003°53'611.0
2019-Oct-15 09:00N 53°20' W 004°01'4 8.0
2019-Oct-15 08:30N 53°16' W 004°05'3 0.2
2019-Oct-14 14:47N 53°14' W 004°09'2 8.6
2019-Oct-14 14:30N 53°15' W 004°06'3 7.0
2019-Oct-14 14:00N 53°18' W 004°02'3 6.1
2019-Oct-14 13:30N 53°21' W 004°00'1 1.6
2019-Oct-14 13:00N 53°21' W 004°01'2 3.4
2019-Oct-14 12:18N 53°23' W 004°00'2 6.5
2019-Oct-14 11:59N 53°25' W 003°58'3 6.3
2019-Oct-14 11:30N 53°26' W 003°54'3 5.5
2019-Oct-14 11:00N 53°28' W 003°50'1 2.3
2019-Oct-14 10:30N 53°28' W 003°49'1 2.7
2019-Oct-14 10:00N 53°28' W 003°46'2 3.5
2019-Oct-14 09:30N 53°27' W 003°47'510.9
2019-Oct-14 09:00N 53°23' W 003°54'510.8
2019-Oct-14 08:30N 53°20' W 004°01'4 8.2
2019-Oct-14 08:00N 53°16' W 004°05'3 0.2
2019-Oct-13 14:33N 53°14' W 004°09'0 8.8
2019-Oct-13 14:30N 53°14' W 004°08'4 7.1
2019-Oct-13 14:00N 53°17' W 004°04'4 7.3
2019-Oct-13 13:30N 53°20' W 004°01'1 1.5
2019-Oct-13 13:00N 53°20' W 004°00'1 2.2
2019-Oct-13 12:30N 53°19' W 003°60'2 3.8
2019-Oct-13 12:00N 53°20' W 003°57'3 5.6
2019-Oct-13 11:30N 53°22' W 003°53'1 2.3
2019-Oct-13 11:00N 53°21' W 003°55'1 2.7
2019-Oct-13 10:30N 53°21' W 003°58'1 1.3
2019-Oct-13 10:00N 53°21' W 003°59'1 1.1
2019-Oct-13 09:30N 53°21' W 003°58'2 4.4
2019-Oct-13 09:00N 53°20' W 004°01'4 7.4
2019-Oct-13 08:30N 53°17' W 004°04'4 7.7
2019-Oct-13 08:00N 53°14' W 004°09'0 0.0
2019-Oct-12 14:21N 53°14' W 004°09'3 7.6
2019-Oct-12 13:59N 53°16' W 004°05'4 7.5
2019-Oct-12 13:30N 53°19' W 004°02'2 4.6
2019-Oct-12 13:00N 53°21' W 004°05'2 3.2
2019-Oct-12 12:19N 53°22' W 004°08'6 1.7
2019-Oct-12 08:49N 53°21' W 003°58'3 9.7
2019-Oct-12 08:30N 53°19' W 004°02'4 7.6
2019-Oct-12 08:00N 53°16' W 004°05'3 0.2
2019-Oct-11 13:49N 53°14' W 004°09'3 8.1
2019-Oct-11 13:30N 53°15' W 004°06'3 6.9
2019-Oct-11 13:00N 53°18' W 004°02'3 5.6
2019-Oct-11 12:30N 53°20' W 004°06'1 2.3
2019-Oct-11 11:53N 53°21' W 004°07'1 2.2
2019-Oct-11 11:26N 53°21' W 004°09'6 5.1
2019-Oct-11 10:12N 53°21' W 003°58'0 1.9
2019-Oct-11 10:00N 53°21' W 003°59'1 2.7
2019-Oct-11 09:30N 53°21' W 004°01'1 2.8
2019-Oct-11 09:00N 53°21' W 004°03'2 3.4
2019-Oct-11 08:28N 53°19' W 004°02'4 8.3
2019-Oct-11 08:00N 53°15' W 004°06'3 0.1
2019-Oct-09 14:22N 53°14' W 004°09'3 7.7
2019-Oct-09 14:00N 53°16' W 004°05'4 7.3
2019-Oct-09 13:31N 53°19' W 004°02'4 7.5
2019-Oct-09 12:59N 53°21' W 004°08'1 0.8
2019-Oct-09 11:50N 53°22' W 004°07'5 3.3
2019-Oct-09 10:15N 53°21' W 003°59'1 2.3
2019-Oct-09 10:00N 53°21' W 003°60'1 2.6
2019-Oct-09 09:31N 53°21' W 004°02'1 2.6
2019-Oct-09 09:00N 53°21' W 004°04'3 6.1
2019-Oct-09 08:30N 53°18' W 004°03'4 8.5
2019-Oct-09 08:00N 53°15' W 004°08'  
Track history (hours):
 
Tides and Currents Weather Stations Pressure Air Temp Water Temp Dewpoint Dewpoint Depression Visibility Wind Speed Wind Dir Waves Ship Positions

Oceanographic research ship Prince Madog (UK)

Detailed information on ship capabilities available from University of Delaware's Ocean Information Center.

Last reported at 2019-Oct-16 15:19 UTC. Time now 2019-Oct-17 16:11 UTC.
Position N 53°14' W 004°09'.

Length 35 m; draft 3.9 m.

Type: Ship. MMSI: 235234000.

Date/timePositionNaut miles runAvg speedWind from/ knotsBaromVisibWave heightAir tempDewpointWater temp
2019-Oct-16 15:19N 53°14' W 004°09'3 7.7
2019-Oct-16 14:59N 53°16' W 004°06'3 7.0
2019-Oct-16 14:30N 53°18' W 004°02'4 6.7
2019-Oct-16 13:57N 53°22' W 004°04'2 4.7
2019-Oct-16 13:30N 53°23' W 004°01'3 5.1
2019-Oct-16 12:58N 53°25' W 003°57'2 5.3
2019-Oct-16 12:30N 53°27' W 003°54'2 4.7
2019-Oct-16 12:00N 53°28' W 003°51'1 1.8
2019-Oct-16 11:30N 53°28' W 003°50'1 2.7
2019-Oct-16 11:00N 53°28' W 003°48'1 2.5
2019-Oct-16 10:30N 53°28' W 003°46'3 5.8
2019-Oct-16 10:00N 53°26' W 003°49'4 8.7
2019-Oct-16 09:30N 53°23' W 003°54'5 9.7
2019-Oct-16 09:00N 53°20' W 004°00'4 8.3
2019-Oct-16 08:30N 53°17' W 004°04'4 0.2
2019-Oct-15 14:51N 53°14' W 004°09'3 7.8
2019-Oct-15 14:30N 53°16' W 004°05'3 6.4
2019-Oct-15 14:01N 53°18' W 004°02'3 5.3
2019-Oct-15 13:30N 53°21' W 004°01'2 4.8
2019-Oct-15 13:00N 53°23' W 003°59'3 5.5
2019-Oct-15 12:30N 53°25' W 003°55'3 5.1
2019-Oct-15 12:00N 53°26' W 003°53'2 4.5
2019-Oct-15 11:30N 53°28' W 003°51'1 2.2
2019-Oct-15 11:00N 53°28' W 003°49'1 2.8
2019-Oct-15 10:30N 53°28' W 003°46'2 3.6
2019-Oct-15 10:00N 53°27' W 003°47'510.9
2019-Oct-15 09:30N 53°22' W 003°53'611.0
2019-Oct-15 09:00N 53°20' W 004°01'4 8.0
2019-Oct-15 08:30N 53°16' W 004°05'3 0.2
2019-Oct-14 14:47N 53°14' W 004°09'2 8.6
2019-Oct-14 14:30N 53°15' W 004°06'3 7.0
2019-Oct-14 14:00N 53°18' W 004°02'3 6.1
2019-Oct-14 13:30N 53°21' W 004°00'1 1.6
2019-Oct-14 13:00N 53°21' W 004°01'2 3.4
2019-Oct-14 12:18N 53°23' W 004°00'2 6.5
2019-Oct-14 11:59N 53°25' W 003°58'3 6.3
2019-Oct-14 11:30N 53°26' W 003°54'3 5.5
2019-Oct-14 11:00N 53°28' W 003°50'1 2.3
2019-Oct-14 10:30N 53°28' W 003°49'1 2.7
2019-Oct-14 10:00N 53°28' W 003°46'2 3.5
2019-Oct-14 09:30N 53°27' W 003°47'510.9
2019-Oct-14 09:00N 53°23' W 003°54'510.8
2019-Oct-14 08:30N 53°20' W 004°01'4 8.2
2019-Oct-14 08:00N 53°16' W 004°05'3 0.2
2019-Oct-13 14:33N 53°14' W 004°09'0 8.8
2019-Oct-13 14:30N 53°14' W 004°08'4 7.1
2019-Oct-13 14:00N 53°17' W 004°04'4 7.3
2019-Oct-13 13:30N 53°20' W 004°01'1 1.5
2019-Oct-13 13:00N 53°20' W 004°00'1 2.2
2019-Oct-13 12:30N 53°19' W 003°60'2 3.8
2019-Oct-13 12:00N 53°20' W 003°57'3 5.6
2019-Oct-13 11:30N 53°22' W 003°53'1 2.3
2019-Oct-13 11:00N 53°21' W 003°55'1 2.7
2019-Oct-13 10:30N 53°21' W 003°58'1 1.3
2019-Oct-13 10:00N 53°21' W 003°59'1 1.1
2019-Oct-13 09:30N 53°21' W 003°58'2 4.4
2019-Oct-13 09:00N 53°20' W 004°01'4 7.4
2019-Oct-13 08:30N 53°17' W 004°04'4 7.7
2019-Oct-13 08:00N 53°14' W 004°09'0 0.0
2019-Oct-12 14:21N 53°14' W 004°09'3 7.6
2019-Oct-12 13:59N 53°16' W 004°05'4 7.5
2019-Oct-12 13:30N 53°19' W 004°02'2 4.6
2019-Oct-12 13:00N 53°21' W 004°05'2 3.2
2019-Oct-12 12:19N 53°22' W 004°08'6 1.7
2019-Oct-12 08:49N 53°21' W 003°58'3 9.7
2019-Oct-12 08:30N 53°19' W 004°02'4 7.6
2019-Oct-12 08:00N 53°16' W 004°05'3 0.2
2019-Oct-11 13:49N 53°14' W 004°09'3 8.1
2019-Oct-11 13:30N 53°15' W 004°06'3 6.9
2019-Oct-11 13:00N 53°18' W 004°02'3 5.6
2019-Oct-11 12:30N 53°20' W 004°06'1 2.3
2019-Oct-11 11:53N 53°21' W 004°07'1 2.2
2019-Oct-11 11:26N 53°21' W 004°09'6 5.1
2019-Oct-11 10:12N 53°21' W 003°58'0 1.9
2019-Oct-11 10:00N 53°21' W 003°59'1 2.7
2019-Oct-11 09:30N 53°21' W 004°01'1 2.8
2019-Oct-11 09:00N 53°21' W 004°03'2 3.4
2019-Oct-11 08:28N 53°19' W 004°02'4 8.3
2019-Oct-11 08:00N 53°15' W 004°06'3 0.1
2019-Oct-09 14:22N 53°14' W 004°09'3 7.7
2019-Oct-09 14:00N 53°16' W 004°05'4 7.3
2019-Oct-09 13:31N 53°19' W 004°02'4 7.5
2019-Oct-09 12:59N 53°21' W 004°08'1 0.8
2019-Oct-09 11:50N 53°22' W 004°07'5 3.3
2019-Oct-09 10:15N 53°21' W 003°59'1 2.3
2019-Oct-09 10:00N 53°21' W 003°60'1 2.6
2019-Oct-09 09:31N 53°21' W 004°02'1 2.6
2019-Oct-09 09:00N 53°21' W 004°04'3 6.1
2019-Oct-09 08:30N 53°18' W 004°03'4 8.5
2019-Oct-09 08:00N 53°15' W 004°08'  

Dump ship's entire track history